createdAt,value
2023-09-05T00:01:34.433Z,52.63
2023-09-05T00:03:36.003Z,52.98
2023-09-05T00:05:37.625Z,52.72
2023-09-05T00:07:40.013Z,53.02
2023-09-05T00:09:41.461Z,53.11
2023-09-05T00:11:42.981Z,53.36
2023-09-05T00:13:44.518Z,53.46
2023-09-05T00:15:46.044Z,53.55
2023-09-05T00:17:47.629Z,53.75
2023-09-05T00:19:50.093Z,53.53
2023-09-05T00:21:51.608Z,53.69
2023-09-05T00:23:53.100Z,54.02
2023-09-05T00:25:54.609Z,53.71
2023-09-05T00:27:56.140Z,53.90
2023-09-05T00:29:58.467Z,53.92
2023-09-05T00:32:04.507Z,53.48
2023-09-05T00:34:06.029Z,53.88
2023-09-05T00:36:07.540Z,53.72
2023-09-05T00:38:09.000Z,53.94
2023-09-05T00:40:10.882Z,53.74
2023-09-05T00:42:13.352Z,54.15
2023-09-05T00:44:15.322Z,54.12
2023-09-05T00:46:17.893Z,54.13
2023-09-05T00:48:28.593Z,53.92
2023-09-05T00:50:30.104Z,54.24
2023-09-05T00:52:31.737Z,54.02
2023-09-05T00:54:33.472Z,53.65
2023-09-05T00:56:36.506Z,53.64
2023-09-05T00:58:38.126Z,53.84
2023-09-05T01:00:39.752Z,53.75
2023-09-05T01:02:42.400Z,53.73
2023-09-05T01:04:44.451Z,53.74
2023-09-05T01:07:05.008Z,53.71
2023-09-05T01:09:21.818Z,53.79
2023-09-05T01:11:23.773Z,53.88
2023-09-05T01:13:28.782Z,53.79
2023-09-05T01:15:30.252Z,53.35
2023-09-05T01:17:31.738Z,54.12
2023-09-05T01:19:37.528Z,54.03
2023-09-05T01:21:42.183Z,54.07
2023-09-05T01:23:45.916Z,54.23
2023-09-05T01:25:47.847Z,53.98
2023-09-05T01:27:49.864Z,54.01
2023-09-05T01:29:52.078Z,54.22
2023-09-05T01:31:54.561Z,54.08
2023-09-05T01:33:56.035Z,54.33
2023-09-05T01:35:57.603Z,54.30
2023-09-05T01:37:59.320Z,54.11
2023-09-05T01:40:00.817Z,54.28
2023-09-05T01:42:02.344Z,54.15
2023-09-05T01:44:04.004Z,54.33
2023-09-05T01:46:05.642Z,54.22
2023-09-05T01:48:07.388Z,54.36
2023-09-05T01:50:09.137Z,54.26
2023-09-05T01:52:10.629Z,54.50
2023-09-05T01:54:12.096Z,54.23
2023-09-05T01:56:13.613Z,54.25
2023-09-05T01:58:15.106Z,54.50
2023-09-05T02:00:19.054Z,53.95
2023-09-05T02:02:20.632Z,54.30
2023-09-05T02:04:22.326Z,54.36
2023-09-05T02:06:24.004Z,53.97
2023-09-05T02:08:25.517Z,54.16
2023-09-05T02:10:27.002Z,54.22
2023-09-05T02:12:29.002Z,54.09
2023-09-05T02:16:37.310Z,54.29
2023-09-05T02:18:38.804Z,54.22
2023-09-05T02:20:43.388Z,54.59
2023-09-05T02:22:45.382Z,54.50
2023-09-05T02:24:46.876Z,54.43
2023-09-05T02:31:04.862Z,54.50
2023-09-05T02:33:09.879Z,54.55
2023-09-05T02:35:13.648Z,54.63
2023-09-05T02:37:15.342Z,54.78
2023-09-05T02:39:16.793Z,54.63
2023-09-05T02:41:18.588Z,54.54
2023-09-05T02:43:20.052Z,54.79
2023-09-05T02:45:21.617Z,54.60
2023-09-05T02:47:23.599Z,54.79
2023-09-05T02:51:31.470Z,54.59
2023-09-05T02:53:33.581Z,54.87
2023-09-05T02:55:35.510Z,54.70
2023-09-05T02:57:37.037Z,54.65
2023-09-05T02:59:38.664Z,54.86
2023-09-05T03:05:53.973Z,54.99
2023-09-05T03:07:56.193Z,54.82
2023-09-05T03:09:57.674Z,54.98
2023-09-05T03:18:19.889Z,54.96
2023-09-05T03:20:26.771Z,55.03
2023-09-05T03:22:28.280Z,55.03
2023-09-05T03:24:29.866Z,55.08
2023-09-05T03:28:42.312Z,54.95
2023-09-05T03:30:43.884Z,55.09
2023-09-05T03:32:45.458Z,54.86
2023-09-05T03:34:50.102Z,54.99
2023-09-05T03:36:51.787Z,54.92
2023-09-05T03:38:53.296Z,55.11
2023-09-05T03:40:55.913Z,54.96
2023-09-05T03:42:57.496Z,55.04
2023-09-05T03:44:59.161Z,55.43
2023-09-05T03:47:00.721Z,54.97
2023-09-05T03:49:02.459Z,55.15
2023-09-05T03:51:04.059Z,55.47
2023-09-05T03:55:11.941Z,55.34
2023-09-05T03:57:13.586Z,55.35
2023-09-05T03:59:15.577Z,55.29
2023-09-05T04:01:17.515Z,55.18
2023-09-05T04:03:19.075Z,55.09
2023-09-05T04:05:22.137Z,55.18
2023-09-05T04:07:24.209Z,55.16
2023-09-05T04:09:25.740Z,55.44
2023-09-05T04:11:27.245Z,55.20
2023-09-05T04:13:29.009Z,55.29
2023-09-05T04:15:30.634Z,55.39
2023-09-05T04:17:32.144Z,55.15
2023-09-05T04:19:33.810Z,55.33
2023-09-05T04:21:35.856Z,55.41
2023-09-05T04:23:37.545Z,55.67
2023-09-05T04:25:41.225Z,55.53
2023-09-05T04:27:42.836Z,55.67
2023-09-05T04:29:44.494Z,55.45
2023-09-05T04:31:46.122Z,55.31
2023-09-05T04:33:49.671Z,55.70
2023-09-05T04:35:51.246Z,55.70
2023-09-05T04:37:54.003Z,55.74
2023-09-05T04:39:56.004Z,55.61
2023-09-05T04:41:57.626Z,55.63
2023-09-05T04:43:59.118Z,55.55
2023-09-05T04:46:00.688Z,55.71
2023-09-05T04:52:13.162Z,55.69
2023-09-05T04:54:14.675Z,55.62
2023-09-05T04:56:16.136Z,55.67
2023-09-05T05:02:32.865Z,55.71
2023-09-05T05:04:34.329Z,55.61
2023-09-05T05:06:35.778Z,55.73
2023-09-05T05:08:37.289Z,55.56
2023-09-05T05:12:45.670Z,55.59
2023-09-05T05:14:47.156Z,55.57
2023-09-05T05:16:50.394Z,55.49
2023-09-05T05:18:51.932Z,55.78
2023-09-05T05:20:53.459Z,55.82
2023-09-05T05:22:55.072Z,55.56
2023-09-05T05:24:56.636Z,55.51
2023-09-05T05:26:58.489Z,55.46
2023-09-05T05:28:59.955Z,55.63
2023-09-05T05:31:01.504Z,55.73
2023-09-05T05:33:03.976Z,55.65
2023-09-05T05:37:12.182Z,55.77
2023-09-05T05:39:13.746Z,55.47
2023-09-05T05:41:15.640Z,55.71
2023-09-05T05:43:17.165Z,55.70
2023-09-05T05:45:18.657Z,55.86
2023-09-05T05:47:20.121Z,55.67
2023-09-05T05:49:21.646Z,55.58
2023-09-05T05:51:23.429Z,55.59
2023-09-05T05:53:25.562Z,55.83
2023-09-05T05:55:27.049Z,55.64
2023-09-05T05:57:28.754Z,55.54
2023-09-05T05:59:30.338Z,55.53
2023-09-05T06:01:33.375Z,55.73
2023-09-05T06:03:37.882Z,55.42
2023-09-05T06:05:39.626Z,55.78
2023-09-05T06:07:41.200Z,55.62
2023-09-05T06:09:42.812Z,55.61
2023-09-05T06:11:44.289Z,55.55
2023-09-05T06:13:45.822Z,55.41
2023-09-05T06:15:47.564Z,55.61
2023-09-05T06:17:49.138Z,55.49
2023-09-05T06:19:51.450Z,55.67
2023-09-05T06:21:53.329Z,55.36
2023-09-05T06:23:54.857Z,55.47
2023-09-05T06:25:56.502Z,55.42
2023-09-05T06:27:58.030Z,55.53
2023-09-05T06:29:59.610Z,55.59
2023-09-05T06:32:01.146Z,55.34
2023-09-05T06:34:02.916Z,55.53
2023-09-05T06:36:07.974Z,55.32
2023-09-05T06:38:09.406Z,55.72
2023-09-05T06:40:14.110Z,55.63
2023-09-05T06:42:17.796Z,55.75
2023-09-05T06:44:19.292Z,55.51
2023-09-05T06:46:20.881Z,55.49
2023-09-05T06:48:22.344Z,55.42
2023-09-05T06:50:24.968Z,55.42
2023-09-05T06:52:26.534Z,55.40
2023-09-05T06:54:28.087Z,55.22
2023-09-05T06:56:29.680Z,55.55
2023-09-05T06:58:31.236Z,55.43
2023-09-05T07:00:34.846Z,55.36
2023-09-05T07:02:36.421Z,55.12
2023-09-05T07:04:40.977Z,55.23
2023-09-05T07:06:42.512Z,55.48
2023-09-05T07:08:43.956Z,55.07
2023-09-05T07:10:46.182Z,55.37
2023-09-05T07:12:47.680Z,55.37
2023-09-05T07:14:49.924Z,55.35
2023-09-05T07:16:51.486Z,55.35
2023-09-05T07:18:53.137Z,55.47
2023-09-05T07:20:54.704Z,55.01
2023-09-05T07:22:56.295Z,55.00
2023-09-05T07:24:57.846Z,54.81
2023-09-05T07:26:59.381Z,55.06
2023-09-05T07:29:00.876Z,55.32
2023-09-05T07:31:02.688Z,55.35
2023-09-05T07:33:04.458Z,55.24
2023-09-05T07:35:06.222Z,55.11
2023-09-05T07:37:07.792Z,55.15
2023-09-05T07:39:11.233Z,55.11
2023-09-05T07:41:12.773Z,55.20
2023-09-05T07:43:14.287Z,54.67
2023-09-05T07:45:15.754Z,55.08
2023-09-05T07:47:17.368Z,54.72
2023-09-05T07:49:19.698Z,54.90
2023-09-05T07:51:23.960Z,54.60
2023-09-05T07:53:26.057Z,54.58
2023-09-05T07:55:27.548Z,54.46
2023-09-05T07:57:29.270Z,54.54
2023-09-05T07:59:32.395Z,54.33
2023-09-05T08:01:34.092Z,54.05
2023-09-05T08:03:35.697Z,53.88
2023-09-05T08:05:37.770Z,54.16
2023-09-05T08:07:39.577Z,54.11
2023-09-05T08:09:41.044Z,53.97
2023-09-05T08:11:42.631Z,53.94
2023-09-05T08:13:44.151Z,54.09
2023-09-05T08:15:46.051Z,54.28
2023-09-05T08:17:48.731Z,54.27
2023-09-05T08:19:50.254Z,53.83
2023-09-05T08:21:52.193Z,53.74
2023-09-05T08:23:54.037Z,54.14
2023-09-05T08:25:57.677Z,53.81
2023-09-05T08:27:59.414Z,53.91
2023-09-05T08:30:00.957Z,54.03
2023-09-05T08:32:02.844Z,53.93
2023-09-05T08:34:04.536Z,53.69
2023-09-05T08:36:06.730Z,53.80
2023-09-05T08:38:08.287Z,53.80
2023-09-05T08:40:10.164Z,53.84
2023-09-05T08:42:12.292Z,53.87
2023-09-05T08:44:13.793Z,53.77
2023-09-05T08:46:15.834Z,53.56
2023-09-05T08:48:17.397Z,53.85
2023-09-05T08:50:18.938Z,53.67
2023-09-05T08:52:23.273Z,53.67
2023-09-05T08:54:26.089Z,53.56
2023-09-05T08:56:27.742Z,53.79
2023-09-05T08:58:30.160Z,53.70
2023-09-05T09:00:33.279Z,53.75
2023-09-05T09:02:38.237Z,53.51
2023-09-05T09:04:52.631Z,53.55
2023-09-05T09:06:59.221Z,53.43
2023-09-05T09:09:00.896Z,53.53
2023-09-05T09:11:07.085Z,53.46
2023-09-05T09:13:15.878Z,53.39
2023-09-05T09:15:17.534Z,53.75
2023-09-05T09:17:19.799Z,53.48
2023-09-05T09:19:21.305Z,53.61
2023-09-05T09:21:27.129Z,53.59
2023-09-05T09:23:29.898Z,53.25
2023-09-05T09:25:31.416Z,53.37
2023-09-05T09:27:32.914Z,53.31
2023-09-05T09:29:34.435Z,53.35
2023-09-05T09:31:36.331Z,53.45
2023-09-05T09:33:38.324Z,53.57
2023-09-05T09:35:39.857Z,53.37
2023-09-05T09:37:41.396Z,53.33
2023-09-05T09:39:43.026Z,53.45
2023-09-05T09:41:45.302Z,53.23
2023-09-05T09:43:54.531Z,53.33
2023-09-05T09:45:57.889Z,53.48
2023-09-05T09:48:01.786Z,53.35
2023-09-05T09:50:03.476Z,53.20
2023-09-05T09:52:05.718Z,53.37
2023-09-05T09:54:08.062Z,53.24
2023-09-05T09:56:10.873Z,53.11
2023-09-05T09:58:15.205Z,53.17
2023-09-05T10:00:19.530Z,53.07
2023-09-05T10:02:22.034Z,53.45
2023-09-05T10:04:24.696Z,53.41
2023-09-05T10:06:27.603Z,53.34
2023-09-05T10:08:30.083Z,53.10
2023-09-05T10:10:32.368Z,53.27
2023-09-05T10:12:35.489Z,53.16
2023-09-05T10:14:38.431Z,53.43
2023-09-05T10:16:40.775Z,53.25
2023-09-05T10:18:44.769Z,53.32
2023-09-05T10:20:47.639Z,53.13
2023-09-05T10:22:49.062Z,53.04
2023-09-05T10:24:51.205Z,53.22
2023-09-05T10:26:52.846Z,53.25
2023-09-05T10:28:57.421Z,52.96
2023-09-05T10:31:06.424Z,53.11
2023-09-05T10:33:11.114Z,52.97
2023-09-05T10:35:17.447Z,52.83
2023-09-05T10:37:19.470Z,53.20
2023-09-05T10:39:28.639Z,52.88
2023-09-05T10:41:38.945Z,52.91
2023-09-05T10:43:54.359Z,52.94
2023-09-05T10:45:57.396Z,53.18
2023-09-05T10:48:01.283Z,52.88
2023-09-05T10:50:07.067Z,52.56
2023-09-05T10:52:15.777Z,52.77
2023-09-05T10:54:27.392Z,52.94
2023-09-05T10:56:39.246Z,52.89
2023-09-05T10:58:46.742Z,52.43
2023-09-05T11:00:49.544Z,53.11
2023-09-05T11:02:51.592Z,53.12
2023-09-05T11:04:56.430Z,53.23
2023-09-05T11:06:59.543Z,52.09
2023-09-05T11:09:08.498Z,51.11
2023-09-05T11:11:10.117Z,50.94
2023-09-05T11:13:13.219Z,49.99
2023-09-05T11:15:14.847Z,49.47
2023-09-05T11:17:17.241Z,49.07
2023-09-05T11:19:43.240Z,49.58
2023-09-05T11:21:45.289Z,48.85
2023-09-05T11:23:54.195Z,48.13
2023-09-05T11:25:56.973Z,49.49
2023-09-05T11:28:01.490Z,48.27
2023-09-05T11:30:05.460Z,47.63
2023-09-05T11:32:07.406Z,47.71
2023-09-05T11:34:08.953Z,47.32
2023-09-05T11:36:10.479Z,47.27
2023-09-05T11:38:12.405Z,46.82
2023-09-05T11:40:14.673Z,46.82
2023-09-05T11:42:16.924Z,46.93
2023-09-05T11:44:30.226Z,47.31
2023-09-05T11:46:34.878Z,46.81
2023-09-05T11:48:36.667Z,47.04
2023-09-05T11:50:39.855Z,47.04
2023-09-05T11:52:41.530Z,46.58
2023-09-05T11:54:43.743Z,46.24
2023-09-05T11:56:45.470Z,46.19
2023-09-05T11:58:46.998Z,45.60
2023-09-05T12:00:51.469Z,45.58
2023-09-05T12:02:54.339Z,45.99
2023-09-05T12:04:56.558Z,46.03
2023-09-05T12:06:58.068Z,45.93
2023-09-05T12:08:59.646Z,45.83
2023-09-05T12:11:01.305Z,45.36
2023-09-05T12:13:04.465Z,44.93
2023-09-05T12:15:06.293Z,44.78
2023-09-05T12:17:09.208Z,44.45
2023-09-05T12:19:10.738Z,44.92
2023-09-05T12:21:12.222Z,43.97
2023-09-05T12:23:23.006Z,44.33
2023-09-05T12:25:35.900Z,43.66
2023-09-05T12:27:45.322Z,43.69
2023-09-05T12:29:46.902Z,43.51
2023-09-05T12:31:51.536Z,43.15
2023-09-05T12:33:56.936Z,42.94
2023-09-05T12:35:58.516Z,42.83
2023-09-05T12:38:01.016Z,42.81
2023-09-05T12:40:02.607Z,42.61
2023-09-05T12:42:04.266Z,42.17
2023-09-05T12:44:07.657Z,42.29
2023-09-05T12:46:09.198Z,41.76
2023-09-05T12:48:10.785Z,41.87
2023-09-05T12:50:16.368Z,41.94
2023-09-05T12:52:22.098Z,41.36
2023-09-05T12:54:23.751Z,41.61
2023-09-05T12:56:25.312Z,41.50
2023-09-05T12:58:27.863Z,40.92
2023-09-05T13:00:30.272Z,41.01
2023-09-05T13:02:31.813Z,40.46
2023-09-05T13:04:33.699Z,40.61
2023-09-05T13:06:35.282Z,40.02
2023-09-05T13:08:36.842Z,39.90
2023-09-05T13:10:38.792Z,39.65
2023-09-05T13:12:40.409Z,39.11
2023-09-05T13:14:43.875Z,38.89
2023-09-05T13:16:45.465Z,38.38
2023-09-05T13:18:46.981Z,38.88
2023-09-05T13:22:54.863Z,38.81
2023-09-05T13:24:56.352Z,38.67
2023-09-05T13:26:59.944Z,38.72
2023-09-05T13:29:01.504Z,38.92
2023-09-05T13:31:03.055Z,38.44
2023-09-05T13:37:19.513Z,38.57
2023-09-05T13:39:21.060Z,38.77
2023-09-05T13:41:22.677Z,38.66
2023-09-05T13:43:24.189Z,38.71
2023-09-05T13:45:25.973Z,39.21
2023-09-05T13:47:28.155Z,38.94
2023-09-05T13:49:29.774Z,38.63
2023-09-05T13:51:33.834Z,38.66
2023-09-05T13:53:35.414Z,38.56
2023-09-05T13:55:37.037Z,39.19
2023-09-05T13:57:38.641Z,38.69
2023-09-05T13:59:40.174Z,38.84
2023-09-05T14:01:41.813Z,38.32
2023-09-05T14:03:43.333Z,38.77
2023-09-05T14:05:44.874Z,38.80
2023-09-05T14:07:46.419Z,38.31
2023-09-05T14:09:47.933Z,38.62
2023-09-05T14:11:49.488Z,38.82
2023-09-05T14:13:51.040Z,38.53
2023-09-05T14:15:52.799Z,38.42
2023-09-05T14:17:54.617Z,38.75
2023-09-05T14:22:02.639Z,38.38
2023-09-05T14:24:04.242Z,37.96
2023-09-05T14:26:05.757Z,37.66
2023-09-05T14:28:07.330Z,37.51
2023-09-05T14:30:09.186Z,38.01
2023-09-05T14:32:10.875Z,38.15
2023-09-05T14:34:12.961Z,38.84
2023-09-05T14:36:14.698Z,39.06
2023-09-05T14:38:16.192Z,37.96
2023-09-05T14:40:17.694Z,38.85
2023-09-05T14:42:19.317Z,38.63
2023-09-05T14:44:21.162Z,37.91
2023-09-05T14:46:24.976Z,38.08
2023-09-05T14:48:27.430Z,36.71
2023-09-05T14:50:29.194Z,37.31
2023-09-05T14:52:31.826Z,36.53
2023-09-05T14:54:33.358Z,36.64
2023-09-05T14:56:34.948Z,36.75
2023-09-05T14:58:36.725Z,36.32
2023-09-05T15:00:38.238Z,36.46
2023-09-05T15:02:40.022Z,36.21
2023-09-05T15:04:41.661Z,36.00
2023-09-05T15:06:43.485Z,35.78
2023-09-05T15:08:45.063Z,36.11
2023-09-05T15:10:46.553Z,36.43
2023-09-05T15:12:48.160Z,36.14
2023-09-05T15:14:49.868Z,35.45
2023-09-05T15:16:55.950Z,35.11
2023-09-05T15:18:57.669Z,35.72
2023-09-05T15:20:59.335Z,35.14
2023-09-05T15:23:01.005Z,34.83
2023-09-05T15:25:19.145Z,34.49
2023-09-05T15:27:20.670Z,34.79
2023-09-05T15:29:22.302Z,34.67
2023-09-05T15:31:24.025Z,34.77
2023-09-05T15:33:25.713Z,34.39
2023-09-05T15:35:28.456Z,34.06
2023-09-05T15:37:29.946Z,34.13
2023-09-05T15:39:31.549Z,34.34
2023-09-05T15:41:33.064Z,33.76
2023-09-05T15:43:34.549Z,34.09
2023-09-05T15:45:36.232Z,34.26
2023-09-05T15:47:37.747Z,34.08
2023-09-05T15:49:39.314Z,34.02
2023-09-05T15:51:40.838Z,34.96
2023-09-05T15:53:44.343Z,34.37
2023-09-05T15:55:45.840Z,34.76
2023-09-05T15:57:47.308Z,34.21
2023-09-05T15:59:50.896Z,34.15
2023-09-05T16:01:54.143Z,33.83
2023-09-05T16:03:55.956Z,33.52
2023-09-05T16:06:00.071Z,33.79
2023-09-05T16:08:01.959Z,33.84
2023-09-05T16:10:05.878Z,33.92
2023-09-05T16:12:09.306Z,33.50
2023-09-05T16:14:10.841Z,33.51
2023-09-05T16:16:16.705Z,33.39
2023-09-05T16:18:18.419Z,33.83
2023-09-05T16:20:20.206Z,33.44
2023-09-05T16:22:21.730Z,33.60
2023-09-05T16:24:23.604Z,33.56
2023-09-05T16:26:30.654Z,33.58
2023-09-05T16:28:32.374Z,32.99
2023-09-05T16:30:33.949Z,33.11
2023-09-05T16:32:36.162Z,32.96
2023-09-05T16:34:37.708Z,32.69
2023-09-05T16:36:39.468Z,33.32
2023-09-05T16:38:41.242Z,33.11
2023-09-05T16:40:42.890Z,33.42
2023-09-05T16:42:44.602Z,33.52
2023-09-05T16:44:47.086Z,33.22
2023-09-05T16:46:48.592Z,32.70
2023-09-05T16:48:50.270Z,32.80
2023-09-05T16:50:52.245Z,32.70
2023-09-05T16:52:53.748Z,32.94
2023-09-05T16:54:55.294Z,32.70
2023-09-05T16:56:56.913Z,32.96
2023-09-05T16:59:00.408Z,32.71
2023-09-05T17:01:03.194Z,32.61
2023-09-05T17:03:06.348Z,33.34
2023-09-05T17:05:08.095Z,33.24
2023-09-05T17:07:09.633Z,33.96
2023-09-05T17:09:11.253Z,33.50
2023-09-05T17:11:12.797Z,34.05
2023-09-05T17:13:14.467Z,33.86
2023-09-05T17:15:16.448Z,33.48
2023-09-05T17:17:18.060Z,34.05
2023-09-05T17:19:19.521Z,34.28
2023-09-05T17:21:21.149Z,34.35
2023-09-05T17:23:23.275Z,33.89
2023-09-05T17:25:24.815Z,35.13
2023-09-05T17:27:26.470Z,34.50
2023-09-05T17:29:28.229Z,34.87
2023-09-05T17:31:30.023Z,34.96
2023-09-05T17:33:32.195Z,35.17
2023-09-05T17:35:34.321Z,35.59
2023-09-05T17:37:36.631Z,35.34
2023-09-05T17:39:40.081Z,35.43
2023-09-05T17:41:41.672Z,34.71
2023-09-05T17:43:43.202Z,35.33
2023-09-05T17:45:44.754Z,35.69
2023-09-05T17:47:46.555Z,35.41
2023-09-05T17:49:48.268Z,35.13
2023-09-05T17:51:50.515Z,35.50
2023-09-05T17:53:52.094Z,35.34
2023-09-05T17:55:53.617Z,35.54
2023-09-05T17:57:55.253Z,36.14
2023-09-05T17:59:56.904Z,36.09
2023-09-05T18:01:58.499Z,35.88
2023-09-05T18:04:00.337Z,35.93
2023-09-05T18:06:02.274Z,35.72
2023-09-05T18:08:03.883Z,35.37
2023-09-05T18:10:05.877Z,35.97
2023-09-05T18:12:07.422Z,35.82
2023-09-05T18:14:13.403Z,35.93
2023-09-05T18:16:16.329Z,36.24
2023-09-05T18:18:17.957Z,36.23
2023-09-05T18:20:19.578Z,36.15
2023-09-05T18:22:21.395Z,35.93
2023-09-05T18:24:22.866Z,35.67
2023-09-05T18:26:24.408Z,35.87
2023-09-05T18:28:26.200Z,36.12
2023-09-05T18:30:28.054Z,36.22
2023-09-05T18:32:29.639Z,36.36
2023-09-05T18:34:35.157Z,36.10
2023-09-05T18:36:36.687Z,36.33
2023-09-05T18:38:41.421Z,36.24
2023-09-05T18:40:43.087Z,36.77
2023-09-05T18:42:44.660Z,36.68
2023-09-05T18:44:46.260Z,36.93
2023-09-05T18:46:47.828Z,36.95
2023-09-05T18:48:49.436Z,37.18
2023-09-05T18:50:51.746Z,37.34
2023-09-05T18:52:53.365Z,37.61
2023-09-05T18:54:55.793Z,37.87
2023-09-05T18:56:58.014Z,37.97
2023-09-05T18:58:59.466Z,37.73
2023-09-05T19:01:00.926Z,37.79
2023-09-05T19:03:02.716Z,38.07
2023-09-05T19:05:04.633Z,38.43
2023-09-05T19:07:06.201Z,38.52
2023-09-05T19:09:07.685Z,38.46
2023-09-05T19:11:09.360Z,38.92
2023-09-05T19:13:14.199Z,39.03
2023-09-05T19:15:15.990Z,38.81
2023-09-05T19:17:17.624Z,39.21
2023-09-05T19:19:19.083Z,39.31
2023-09-05T19:21:20.569Z,39.54
2023-09-05T19:23:22.866Z,39.60
2023-09-05T19:25:24.297Z,39.80
2023-09-05T19:27:25.856Z,39.90
2023-09-05T19:29:29.648Z,39.69
2023-09-05T19:31:31.462Z,39.75
2023-09-05T19:33:33.110Z,39.99
2023-09-05T19:35:34.627Z,40.23
2023-09-05T19:37:39.260Z,40.08
2023-09-05T19:39:41.961Z,40.22
2023-09-05T19:41:44.136Z,40.29
2023-09-05T19:43:49.869Z,40.79
2023-09-05T19:45:52.880Z,41.03
2023-09-05T19:47:55.225Z,40.83
2023-09-05T19:49:57.003Z,40.96
2023-09-05T19:51:58.553Z,41.16
2023-09-05T19:54:00.239Z,41.23
2023-09-05T19:56:01.833Z,41.39
2023-09-05T19:58:04.403Z,41.49
2023-09-05T20:00:13.016Z,41.56
2023-09-05T20:02:14.874Z,41.73
2023-09-05T20:04:16.621Z,41.61
2023-09-05T20:06:18.254Z,41.77
2023-09-05T20:08:19.821Z,41.68
2023-09-05T20:10:23.333Z,41.67
2023-09-05T20:12:24.959Z,41.98
2023-09-05T20:14:26.498Z,42.16
2023-09-05T20:16:28.295Z,41.97
2023-09-05T20:18:30.283Z,42.35
2023-09-05T20:20:32.496Z,42.11
2023-09-05T20:22:34.039Z,42.36
2023-09-05T20:24:35.775Z,42.28
2023-09-05T20:26:37.352Z,42.19
2023-09-05T20:28:38.962Z,42.50
2023-09-05T20:30:40.951Z,42.68
2023-09-05T20:32:42.600Z,42.33
2023-09-05T20:34:44.273Z,42.44
2023-09-05T20:36:45.768Z,42.40
2023-09-05T20:38:47.626Z,42.79
2023-09-05T20:40:49.211Z,42.77
2023-09-05T20:42:50.744Z,42.70
2023-09-05T20:44:53.149Z,42.79
2023-09-05T20:46:54.734Z,43.31
2023-09-05T20:48:56.363Z,43.42
2023-09-05T20:50:58.099Z,43.51
2023-09-05T20:52:59.833Z,43.19
2023-09-05T20:55:01.533Z,43.36
2023-09-05T20:57:03.478Z,43.20
2023-09-05T20:59:05.199Z,43.41
2023-09-05T21:01:06.834Z,43.54
2023-09-05T21:03:08.541Z,43.13
2023-09-05T21:05:10.146Z,43.65
2023-09-05T21:09:19.326Z,43.64
2023-09-05T21:11:21.246Z,43.17
2023-09-05T21:13:22.757Z,43.18
2023-09-05T21:15:24.891Z,43.56
2023-09-05T21:17:26.527Z,43.33
2023-09-05T21:21:36.118Z,43.42
2023-09-05T21:23:38.441Z,43.39
2023-09-05T21:25:39.895Z,43.44
2023-09-05T21:27:41.738Z,43.67
2023-09-05T21:29:43.294Z,44.06
2023-09-05T21:31:44.832Z,44.22
2023-09-05T21:33:46.538Z,43.97
2023-09-05T21:35:48.684Z,44.16
2023-09-05T21:37:50.483Z,43.76
2023-09-05T21:39:52.028Z,43.70
2023-09-05T21:41:54.238Z,44.18
2023-09-05T21:43:55.758Z,43.77
2023-09-05T21:45:57.468Z,43.99
2023-09-05T21:47:59.164Z,44.34
2023-09-05T21:50:00.768Z,45.04
2023-09-05T21:52:02.441Z,45.13
2023-09-05T21:56:10.718Z,45.72
2023-09-05T21:58:12.158Z,45.62
2023-09-05T22:00:28.875Z,45.56
2023-09-05T22:02:32.027Z,46.14
2023-09-05T22:04:33.567Z,45.96
2023-09-05T22:06:35.137Z,46.01
2023-09-05T22:08:36.694Z,46.23
2023-09-05T22:10:38.164Z,46.42
2023-09-05T22:12:43.104Z,46.51
2023-09-05T22:14:44.655Z,46.57
2023-09-05T22:16:46.279Z,46.94
2023-09-05T22:18:47.830Z,46.85
2023-09-05T22:20:58.621Z,46.78
2023-09-05T22:23:01.183Z,47.08
2023-09-05T22:25:04.138Z,47.27
2023-09-05T22:27:05.771Z,46.97
2023-09-05T22:29:07.379Z,47.41
2023-09-05T22:31:08.908Z,47.38
2023-09-05T22:33:10.494Z,47.62
2023-09-05T22:35:12.184Z,47.43
2023-09-05T22:37:13.632Z,47.74
2023-09-05T22:39:15.064Z,47.72
2023-09-05T22:41:18.600Z,47.65
2023-09-05T22:43:20.097Z,47.59
2023-09-05T22:45:21.644Z,47.66
2023-09-05T22:47:23.212Z,47.63
2023-09-05T22:49:27.361Z,47.89
2023-09-05T22:51:28.900Z,48.12
2023-09-05T22:53:31.228Z,48.13
2023-09-05T22:55:39.411Z,48.02
2023-09-05T22:57:43.351Z,48.25
2023-09-05T22:59:45.013Z,47.88
2023-09-05T23:01:46.658Z,48.05
2023-09-05T23:03:48.420Z,47.93
2023-09-05T23:05:50.032Z,48.21
2023-09-05T23:07:51.523Z,48.22
2023-09-05T23:09:53.094Z,48.02
2023-09-05T23:11:54.673Z,47.89
2023-09-05T23:13:56.369Z,48.03
2023-09-05T23:15:58.320Z,48.23
2023-09-05T23:18:00.026Z,48.49
2023-09-05T23:20:01.672Z,48.04
2023-09-05T23:22:04.389Z,48.22
2023-09-05T23:24:06.105Z,48.08
2023-09-05T23:26:10.020Z,48.35
2023-09-05T23:28:11.928Z,48.66
2023-09-05T23:30:14.248Z,48.37
2023-09-05T23:32:18.001Z,48.33
2023-09-05T23:34:19.576Z,48.33
2023-09-05T23:36:21.074Z,48.52
2023-09-05T23:38:24.880Z,48.46
2023-09-05T23:40:26.762Z,48.62
2023-09-05T23:42:32.026Z,48.59
2023-09-05T23:44:33.759Z,48.69
2023-09-05T23:46:36.507Z,48.80
2023-09-05T23:48:38.207Z,48.84
2023-09-05T23:50:39.724Z,48.97
2023-09-05T23:52:41.253Z,48.98
2023-09-05T23:54:42.775Z,48.83
2023-09-05T23:56:44.284Z,48.74
2023-09-05T23:58:45.916Z,49.01
